Ruza, Russia
Current Conditions -  °F | °C
As of 7:30 PM on Tuesday 21 Oct 2014 (Local Time) from UUWW Reporting Station
Overcast Overcast  
Wind Chill: 19°   Ceiling: 1800
Heat Index: 30°   Visibility: 6mi
Dew Point: 28°   Wind: 16mph
Humidity: 93%   Direction: 340°NNW
Pressure: 29.53"   Gusts: NA
Location:  55.7°N, 36.2°E
Report Text: UUWW 211630Z 34007MPS 9999 SCT010 OVC018 M01/M02 Q1000 01290047NOSIG
Loading
Personal Weather Stations






























Interactive Weather Map
Tropical Storm Tracking
New forecast layout! Learn more

10-Day Weather Forecast

Advertisements
Track Severe Weather on mobile